sensor_id;sensor_type;location;lat;lon;timestamp;P1;durP1;ratioP1;P2;durP2;ratioP2
33844;SDS011;20145;43.118;25.694;2022-08-24T00:02:21;16.90;;;12.32;;
33844;SDS011;20145;43.118;25.694;2022-08-24T00:04:48;14.18;;;12.68;;
33844;SDS011;20145;43.118;25.694;2022-08-24T00:07:14;17.52;;;13.52;;
33844;SDS011;20145;43.118;25.694;2022-08-24T00:09:40;22.80;;;14.38;;
33844;SDS011;20145;43.118;25.694;2022-08-24T00:12:06;14.82;;;12.88;;
33844;SDS011;20145;43.118;25.694;2022-08-24T00:14:33;12.57;;;10.90;;
33844;SDS011;20145;43.118;25.694;2022-08-24T00:16:59;9.18;;;6.53;;
33844;SDS011;20145;43.118;25.694;2022-08-24T00:19:25;9.30;;;6.70;;
33844;SDS011;20145;43.118;25.694;2022-08-24T00:21:51;10.70;;;6.03;;
33844;SDS011;20145;43.118;25.694;2022-08-24T00:24:17;8.98;;;5.97;;
33844;SDS011;20145;43.118;25.694;2022-08-24T00:26:43;6.95;;;6.25;;
33844;SDS011;20145;43.118;25.694;2022-08-24T00:29:10;10.93;;;6.95;;
33844;SDS011;20145;43.118;25.694;2022-08-24T00:31:39;8.45;;;6.68;;
33844;SDS011;20145;43.118;25.694;2022-08-24T00:34:05;11.23;;;8.05;;
33844;SDS011;20145;43.118;25.694;2022-08-24T00:36:31;8.07;;;7.22;;
33844;SDS011;20145;43.118;25.694;2022-08-24T00:38:58;7.80;;;7.00;;
33844;SDS011;20145;43.118;25.694;2022-08-24T00:41:24;8.98;;;6.70;;
33844;SDS011;20145;43.118;25.694;2022-08-24T00:43:52;11.05;;;7.50;;
33844;SDS011;20145;43.118;25.694;2022-08-24T00:48:48;7.65;;;6.85;;
33844;SDS011;20145;43.118;25.694;2022-08-24T00:51:18;7.70;;;6.90;;
33844;SDS011;20145;43.118;25.694;2022-08-24T00:53:50;9.00;;;6.70;;
33844;SDS011;20145;43.118;25.694;2022-08-24T00:56:25;7.65;;;6.68;;
33844;SDS011;20145;43.118;25.694;2022-08-24T00:58:57;7.72;;;6.60;;
33844;SDS011;20145;43.118;25.694;2022-08-24T01:01:26;7.60;;;6.43;;
33844;SDS011;20145;43.118;25.694;2022-08-24T01:03:52;7.35;;;6.65;;
33844;SDS011;20145;43.118;25.694;2022-08-24T01:06:21;10.32;;;7.18;;
33844;SDS011;20145;43.118;25.694;2022-08-24T01:08:47;8.57;;;6.60;;
33844;SDS011;20145;43.118;25.694;2022-08-24T01:11:13;7.55;;;6.65;;
33844;SDS011;20145;43.118;25.694;2022-08-24T01:13:44;7.68;;;6.20;;
33844;SDS011;20145;43.118;25.694;2022-08-24T01:16:12;7.95;;;6.60;;
33844;SDS011;20145;43.118;25.694;2022-08-24T01:18:39;8.00;;;7.13;;
33844;SDS011;20145;43.118;25.694;2022-08-24T01:23:49;9.60;;;7.22;;
33844;SDS011;20145;43.118;25.694;2022-08-24T01:26:36;7.80;;;7.00;;
33844;SDS011;20145;43.118;25.694;2022-08-24T01:29:09;11.20;;;7.43;;
33844;SDS011;20145;43.118;25.694;2022-08-24T01:31:37;9.15;;;6.90;;
33844;SDS011;20145;43.118;25.694;2022-08-24T01:34:03;7.60;;;6.82;;
33844;SDS011;20145;43.118;25.694;2022-08-24T01:36:35;9.15;;;7.38;;
33844;SDS011;20145;43.118;25.694;2022-08-24T01:39:05;6.80;;;6.10;;
33844;SDS011;20145;43.118;25.694;2022-08-24T01:41:35;11.65;;;6.47;;
33844;SDS011;20145;43.118;25.694;2022-08-24T01:44:01;7.35;;;6.50;;
33844;SDS011;20145;43.118;25.694;2022-08-24T01:46:26;14.45;;;7.18;;
33844;SDS011;20145;43.118;25.694;2022-08-24T01:48:52;10.13;;;6.28;;
33844;SDS011;20145;43.118;25.694;2022-08-24T01:51:18;7.07;;;5.97;;
33844;SDS011;20145;43.118;25.694;2022-08-24T01:53:45;7.38;;;5.60;;
33844;SDS011;20145;43.118;25.694;2022-08-24T01:56:10;10.80;;;6.28;;
33844;SDS011;20145;43.118;25.694;2022-08-24T01:58:41;7.28;;;5.78;;
33844;SDS011;20145;43.118;25.694;2022-08-24T02:01:11;6.38;;;5.72;;
33844;SDS011;20145;43.118;25.694;2022-08-24T02:03:37;8.38;;;6.80;;
33844;SDS011;20145;43.118;25.694;2022-08-24T02:06:03;7.20;;;6.47;;
33844;SDS011;20145;43.118;25.694;2022-08-24T02:08:29;8.85;;;5.43;;
33844;SDS011;20145;43.118;25.694;2022-08-24T02:10:56;7.72;;;5.75;;
33844;SDS011;20145;43.118;25.694;2022-08-24T02:13:21;13.05;;;5.90;;
33844;SDS011;20145;43.118;25.694;2022-08-24T02:15:47;9.07;;;6.68;;
33844;SDS011;20145;43.118;25.694;2022-08-24T02:18:12;6.30;;;5.70;;
33844;SDS011;20145;43.118;25.694;2022-08-24T02:20:38;9.98;;;6.28;;
33844;SDS011;20145;43.118;25.694;2022-08-24T02:23:04;7.30;;;5.93;;
33844;SDS011;20145;43.118;25.694;2022-08-24T02:25:31;8.90;;;5.95;;
33844;SDS011;20145;43.118;25.694;2022-08-24T02:27:57;7.05;;;6.18;;
33844;SDS011;20145;43.118;25.694;2022-08-24T02:30:25;7.47;;;6.78;;
33844;SDS011;20145;43.118;25.694;2022-08-24T02:32:51;6.78;;;6.18;;
33844;SDS011;20145;43.118;25.694;2022-08-24T02:35:17;7.80;;;5.85;;
33844;SDS011;20145;43.118;25.694;2022-08-24T02:37:42;6.90;;;6.20;;
33844;SDS011;20145;43.118;25.694;2022-08-24T02:40:08;9.98;;;6.28;;
33844;SDS011;20145;43.118;25.694;2022-08-24T02:42:35;9.65;;;6.75;;
33844;SDS011;20145;43.118;25.694;2022-08-24T02:45:02;7.82;;;6.28;;
33844;SDS011;20145;43.118;25.694;2022-08-24T02:47:29;7.38;;;6.00;;
33844;SDS011;20145;43.118;25.694;2022-08-24T02:49:54;9.10;;;5.80;;
33844;SDS011;20145;43.118;25.694;2022-08-24T02:52:20;7.63;;;5.90;;
33844;SDS011;20145;43.118;25.694;2022-08-24T02:54:45;7.70;;;5.72;;
33844;SDS011;20145;43.118;25.694;2022-08-24T02:57:11;9.23;;;6.47;;
33844;SDS011;20145;43.118;25.694;2022-08-24T02:59:37;9.10;;;7.95;;
33844;SDS011;20145;43.118;25.694;2022-08-24T03:02:02;8.00;;;6.40;;
33844;SDS011;20145;43.118;25.694;2022-08-24T03:04:28;9.00;;;6.78;;
33844;SDS011;20145;43.118;25.694;2022-08-24T03:06:54;8.75;;;6.40;;
33844;SDS011;20145;43.118;25.694;2022-08-24T03:09:19;9.85;;;6.80;;
33844;SDS011;20145;43.118;25.694;2022-08-24T03:11:45;7.75;;;6.57;;
33844;SDS011;20145;43.118;25.694;2022-08-24T03:14:11;9.32;;;7.00;;
33844;SDS011;20145;43.118;25.694;2022-08-24T03:16:37;8.90;;;6.88;;
33844;SDS011;20145;43.118;25.694;2022-08-24T03:19:02;12.10;;;6.80;;
33844;SDS011;20145;43.118;25.694;2022-08-24T03:21:28;7.63;;;6.93;;
33844;SDS011;20145;43.118;25.694;2022-08-24T03:23:54;7.82;;;6.97;;
33844;SDS011;20145;43.118;25.694;2022-08-24T03:26:20;7.93;;;7.13;;
33844;SDS011;20145;43.118;25.694;2022-08-24T03:28:47;8.55;;;7.38;;
33844;SDS011;20145;43.118;25.694;2022-08-24T03:31:12;13.18;;;7.18;;
33844;SDS011;20145;43.118;25.694;2022-08-24T03:33:38;7.57;;;6.75;;
33844;SDS011;20145;43.118;25.694;2022-08-24T03:36:04;8.60;;;7.20;;
33844;SDS011;20145;43.118;25.694;2022-08-24T03:38:30;7.63;;;6.93;;
33844;SDS011;20145;43.118;25.694;2022-08-24T03:40:55;7.70;;;6.78;;
33844;SDS011;20145;43.118;25.694;2022-08-24T03:43:21;11.15;;;6.47;;
33844;SDS011;20145;43.118;25.694;2022-08-24T03:46:06;7.82;;;6.88;;
33844;SDS011;20145;43.118;25.694;2022-08-24T03:48:33;8.48;;;6.78;;
33844;SDS011;20145;43.118;25.694;2022-08-24T03:50:59;7.78;;;6.28;;
33844;SDS011;20145;43.118;25.694;2022-08-24T03:53:25;11.00;;;5.90;;
33844;SDS011;20145;43.118;25.694;2022-08-24T03:55:51;8.45;;;6.55;;
33844;SDS011;20145;43.118;25.694;2022-08-24T03:58:16;7.90;;;5.82;;
33844;SDS011;20145;43.118;25.694;2022-08-24T04:00:42;10.00;;;7.05;;
33844;SDS011;20145;43.118;25.694;2022-08-24T04:03:09;7.28;;;6.60;;
33844;SDS011;20145;43.118;25.694;2022-08-24T04:05:36;6.78;;;6.07;;
33844;SDS011;20145;43.118;25.694;2022-08-24T04:08:03;9.38;;;6.75;;
33844;SDS011;20145;43.118;25.694;2022-08-24T04:10:29;7.32;;;6.63;;
33844;SDS011;20145;43.118;25.694;2022-08-24T04:12:56;7.10;;;6.35;;
33844;SDS011;20145;43.118;25.694;2022-08-24T04:15:21;9.75;;;6.65;;
33844;SDS011;20145;43.118;25.694;2022-08-24T04:17:49;13.60;;;7.13;;
33844;SDS011;20145;43.118;25.694;2022-08-24T04:20:15;8.18;;;6.93;;
33844;SDS011;20145;43.118;25.694;2022-08-24T04:22:40;12.93;;;7.07;;
33844;SDS011;20145;43.118;25.694;2022-08-24T04:25:06;11.65;;;8.18;;
33844;SDS011;20145;43.118;25.694;2022-08-24T04:27:32;9.15;;;7.63;;
33844;SDS011;20145;43.118;25.694;2022-08-24T04:29:58;11.57;;;8.30;;
33844;SDS011;20145;43.118;25.694;2022-08-24T04:32:24;13.00;;;8.50;;
33844;SDS011;20145;43.118;25.694;2022-08-24T04:34:50;10.18;;;8.35;;
33844;SDS011;20145;43.118;25.694;2022-08-24T04:37:15;10.68;;;8.63;;
33844;SDS011;20145;43.118;25.694;2022-08-24T04:39:42;9.70;;;8.52;;
33844;SDS011;20145;43.118;25.694;2022-08-24T04:42:08;10.70;;;8.85;;
33844;SDS011;20145;43.118;25.694;2022-08-24T04:44:34;15.05;;;9.88;;
33844;SDS011;20145;43.118;25.694;2022-08-24T04:47:00;12.93;;;9.88;;
33844;SDS011;20145;43.118;25.694;2022-08-24T04:49:26;16.48;;;12.15;;
33844;SDS011;20145;43.118;25.694;2022-08-24T04:51:52;14.07;;;12.57;;
33844;SDS011;20145;43.118;25.694;2022-08-24T04:54:18;13.93;;;12.38;;
33844;SDS011;20145;43.118;25.694;2022-08-24T04:56:44;15.50;;;12.20;;
33844;SDS011;20145;43.118;25.694;2022-08-24T04:59:09;24.15;;;12.60;;
33844;SDS011;20145;43.118;25.694;2022-08-24T05:01:36;16.15;;;13.32;;
33844;SDS011;20145;43.118;25.694;2022-08-24T05:04:02;19.90;;;12.93;;
33844;SDS011;20145;43.118;25.694;2022-08-24T05:06:29;19.88;;;13.30;;
33844;SDS011;20145;43.118;25.694;2022-08-24T05:08:56;18.58;;;13.57;;
33844;SDS011;20145;43.118;25.694;2022-08-24T05:11:23;16.27;;;13.38;;
33844;SDS011;20145;43.118;25.694;2022-08-24T05:13:51;16.08;;;12.45;;
33844;SDS011;20145;43.118;25.694;2022-08-24T05:16:18;14.35;;;12.50;;
33844;SDS011;20145;43.118;25.694;2022-08-24T05:18:44;16.75;;;12.85;;
33844;SDS011;20145;43.118;25.694;2022-08-24T05:21:12;15.90;;;12.82;;
33844;SDS011;20145;43.118;25.694;2022-08-24T05:23:40;15.95;;;14.18;;
33844;SDS011;20145;43.118;25.694;2022-08-24T05:26:07;17.42;;;14.52;;
33844;SDS011;20145;43.118;25.694;2022-08-24T05:28:39;14.35;;;12.85;;
33844;SDS011;20145;43.118;25.694;2022-08-24T05:31:10;18.17;;;13.38;;
33844;SDS011;20145;43.118;25.694;2022-08-24T05:33:37;16.95;;;12.93;;
33844;SDS011;20145;43.118;25.694;2022-08-24T05:36:04;18.73;;;13.20;;
33844;SDS011;20145;43.118;25.694;2022-08-24T05:38:30;14.80;;;13.27;;
33844;SDS011;20145;43.118;25.694;2022-08-24T05:40:57;14.73;;;13.18;;
33844;SDS011;20145;43.118;25.694;2022-08-24T05:43:28;16.48;;;13.32;;
33844;SDS011;20145;43.118;25.694;2022-08-24T05:45:54;17.85;;;13.27;;
33844;SDS011;20145;43.118;25.694;2022-08-24T05:48:19;16.08;;;13.90;;
33844;SDS011;20145;43.118;25.694;2022-08-24T05:50:54;17.98;;;14.73;;
33844;SDS011;20145;43.118;25.694;2022-08-24T05:53:21;15.77;;;14.20;;
33844;SDS011;20145;43.118;25.694;2022-08-24T05:55:47;21.10;;;15.18;;
33844;SDS011;20145;43.118;25.694;2022-08-24T05:58:13;16.40;;;14.73;;
33844;SDS011;20145;43.118;25.694;2022-08-24T06:00:39;16.67;;;14.98;;
33844;SDS011;20145;43.118;25.694;2022-08-24T06:03:04;18.17;;;15.30;;
33844;SDS011;20145;43.118;25.694;2022-08-24T06:05:30;22.48;;;16.00;;
33844;SDS011;20145;43.118;25.694;2022-08-24T06:07:56;19.83;;;16.15;;
33844;SDS011;20145;43.118;25.694;2022-08-24T06:10:22;18.63;;;15.23;;
33844;SDS011;20145;43.118;25.694;2022-08-24T06:12:48;16.00;;;14.20;;
33844;SDS011;20145;43.118;25.694;2022-08-24T06:15:14;17.05;;;14.93;;
33844;SDS011;20145;43.118;25.694;2022-08-24T06:17:39;16.05;;;14.38;;
33844;SDS011;20145;43.118;25.694;2022-08-24T06:20:05;17.60;;;13.93;;
33844;SDS011;20145;43.118;25.694;2022-08-24T06:22:32;18.27;;;13.80;;
33844;SDS011;20145;43.118;25.694;2022-08-24T06:24:58;19.65;;;13.95;;
33844;SDS011;20145;43.118;25.694;2022-08-24T06:27:43;19.40;;;13.48;;
33844;SDS011;20145;43.118;25.694;2022-08-24T06:30:10;18.15;;;14.13;;
33844;SDS011;20145;43.118;25.694;2022-08-24T06:32:36;15.07;;;13.55;;
33844;SDS011;20145;43.118;25.694;2022-08-24T06:35:03;17.05;;;14.18;;
33844;SDS011;20145;43.118;25.694;2022-08-24T06:37:29;14.95;;;13.40;;
33844;SDS011;20145;43.118;25.694;2022-08-24T06:39:56;13.38;;;11.98;;
33844;SDS011;20145;43.118;25.694;2022-08-24T06:42:22;13.85;;;12.57;;
33844;SDS011;20145;43.118;25.694;2022-08-24T06:44:53;16.15;;;12.40;;
33844;SDS011;20145;43.118;25.694;2022-08-24T06:47:19;18.05;;;13.18;;
33844;SDS011;20145;43.118;25.694;2022-08-24T06:49:45;15.60;;;14.02;;
33844;SDS011;20145;43.118;25.694;2022-08-24T06:52:11;15.95;;;12.57;;
33844;SDS011;20145;43.118;25.694;2022-08-24T06:54:37;14.45;;;12.95;;
33844;SDS011;20145;43.118;25.694;2022-08-24T06:57:03;19.65;;;14.07;;
33844;SDS011;20145;43.118;25.694;2022-08-24T06:59:30;14.20;;;12.73;;
33844;SDS011;20145;43.118;25.694;2022-08-24T07:01:56;15.02;;;13.05;;
33844;SDS011;20145;43.118;25.694;2022-08-24T07:04:22;14.82;;;13.02;;
33844;SDS011;20145;43.118;25.694;2022-08-24T07:06:49;13.75;;;12.32;;
33844;SDS011;20145;43.118;25.694;2022-08-24T07:09:15;13.23;;;11.85;;
33844;SDS011;20145;43.118;25.694;2022-08-24T07:11:41;14.25;;;12.05;;
33844;SDS011;20145;43.118;25.694;2022-08-24T07:14:07;14.68;;;12.00;;
33844;SDS011;20145;43.118;25.694;2022-08-24T07:16:33;17.17;;;13.30;;
33844;SDS011;20145;43.118;25.694;2022-08-24T07:18:59;14.45;;;12.93;;
33844;SDS011;20145;43.118;25.694;2022-08-24T07:21:26;12.98;;;11.32;;
33844;SDS011;20145;43.118;25.694;2022-08-24T07:23:56;19.17;;;11.75;;
33844;SDS011;20145;43.118;25.694;2022-08-24T07:26:24;12.07;;;10.80;;
33844;SDS011;20145;43.118;25.694;2022-08-24T07:28:55;15.30;;;11.70;;
33844;SDS011;20145;43.118;25.694;2022-08-24T07:31:32;13.05;;;11.75;;
33844;SDS011;20145;43.118;25.694;2022-08-24T07:34:00;12.45;;;11.27;;
33844;SDS011;20145;43.118;25.694;2022-08-24T07:36:27;13.40;;;12.02;;
33844;SDS011;20145;43.118;25.694;2022-08-24T07:38:53;16.05;;;11.95;;
33844;SDS011;20145;43.118;25.694;2022-08-24T07:41:20;13.32;;;11.55;;
33844;SDS011;20145;43.118;25.694;2022-08-24T07:43:47;16.52;;;11.90;;
33844;SDS011;20145;43.118;25.694;2022-08-24T07:46:13;11.82;;;9.75;;
33844;SDS011;20145;43.118;25.694;2022-08-24T07:48:39;12.05;;;10.02;;
33844;SDS011;20145;43.118;25.694;2022-08-24T07:51:08;11.25;;;10.15;;
33844;SDS011;20145;43.118;25.694;2022-08-24T07:53:36;11.00;;;8.73;;
33844;SDS011;20145;43.118;25.694;2022-08-24T07:56:02;11.27;;;8.85;;
33844;SDS011;20145;43.118;25.694;2022-08-24T07:58:28;9.85;;;8.18;;
33844;SDS011;20145;43.118;25.694;2022-08-24T08:00:54;9.48;;;7.70;;
33844;SDS011;20145;43.118;25.694;2022-08-24T08:03:20;15.52;;;8.23;;
33844;SDS011;20145;43.118;25.694;2022-08-24T08:05:46;9.38;;;7.47;;
33844;SDS011;20145;43.118;25.694;2022-08-24T08:08:13;11.18;;;7.25;;
33844;SDS011;20145;43.118;25.694;2022-08-24T08:10:39;15.88;;;6.72;;
33844;SDS011;20145;43.118;25.694;2022-08-24T08:13:05;8.43;;;6.25;;
33844;SDS011;20145;43.118;25.694;2022-08-24T08:15:30;10.68;;;5.32;;
33844;SDS011;20145;43.118;25.694;2022-08-24T08:17:57;10.32;;;6.05;;
33844;SDS011;20145;43.118;25.694;2022-08-24T08:20:23;8.50;;;6.00;;
33844;SDS011;20145;43.118;25.694;2022-08-24T08:22:49;8.35;;;5.82;;
33844;SDS011;20145;43.118;25.694;2022-08-24T08:25:34;11.38;;;5.85;;
33844;SDS011;20145;43.118;25.694;2022-08-24T08:28:02;9.93;;;6.50;;
33844;SDS011;20145;43.118;25.694;2022-08-24T08:30:29;16.85;;;6.88;;
33844;SDS011;20145;43.118;25.694;2022-08-24T08:32:55;11.18;;;6.28;;
33844;SDS011;20145;43.118;25.694;2022-08-24T08:35:22;9.00;;;6.47;;
33844;SDS011;20145;43.118;25.694;2022-08-24T08:37:48;13.68;;;7.20;;
33844;SDS011;20145;43.118;25.694;2022-08-24T08:40:27;12.18;;;6.32;;
33844;SDS011;20145;43.118;25.694;2022-08-24T08:43:20;20.17;;;7.35;;
33844;SDS011;20145;43.118;25.694;2022-08-24T08:46:21;12.65;;;6.32;;
33844;SDS011;20145;43.118;25.694;2022-08-24T08:54:42;18.83;;;7.00;;
33844;SDS011;20145;43.118;25.694;2022-08-24T09:00:08;22.73;;;6.97;;
33844;SDS011;20145;43.118;25.694;2022-08-24T09:02:55;16.58;;;7.47;;
33844;SDS011;20145;43.118;25.694;2022-08-24T09:11:13;19.90;;;6.63;;
33844;SDS011;20145;43.118;25.694;2022-08-24T09:16:22;13.73;;;6.35;;
33844;SDS011;20145;43.118;25.694;2022-08-24T09:22:06;21.50;;;7.45;;
33844;SDS011;20145;43.118;25.694;2022-08-24T09:30:06;17.63;;;6.57;;
33844;SDS011;20145;43.118;25.694;2022-08-24T09:35:58;16.58;;;6.20;;
33844;SDS011;20145;43.118;25.694;2022-08-24T09:49:44;18.23;;;6.43;;
33844;SDS011;20145;43.118;25.694;2022-08-24T10:00:40;23.33;;;6.38;;
33844;SDS011;20145;43.118;25.694;2022-08-24T10:03:54;20.98;;;7.07;;
33844;SDS011;20145;43.118;25.694;2022-08-24T10:06:24;16.95;;;6.43;;
33844;SDS011;20145;43.118;25.694;2022-08-24T10:26:35;21.58;;;6.28;;
33844;SDS011;20145;43.118;25.694;2022-08-24T10:29:31;18.25;;;6.85;;
33844;SDS011;20145;43.118;25.694;2022-08-24T10:32:21;25.20;;;6.78;;
33844;SDS011;20145;43.118;25.694;2022-08-24T10:35:12;28.30;;;8.18;;
33844;SDS011;20145;43.118;25.694;2022-08-24T10:46:51;15.05;;;5.82;;
33844;SDS011;20145;43.118;25.694;2022-08-24T10:55:25;19.63;;;6.90;;
33844;SDS011;20145;43.118;25.694;2022-08-24T10:57:58;20.33;;;6.20;;
33844;SDS011;20145;43.118;25.694;2022-08-24T11:00:43;21.48;;;6.15;;
33844;SDS011;20145;43.118;25.694;2022-08-24T11:03:13;12.43;;;6.13;;
33844;SDS011;20145;43.118;25.694;2022-08-24T11:05:49;25.17;;;6.75;;
33844;SDS011;20145;43.118;25.694;2022-08-24T11:08:21;17.40;;;6.18;;
33844;SDS011;20145;43.118;25.694;2022-08-24T11:11:32;17.30;;;7.00;;
33844;SDS011;20145;43.118;25.694;2022-08-24T11:13:50;25.95;;;7.00;;
33844;SDS011;20145;43.118;25.694;2022-08-24T11:16:32;16.33;;;5.97;;
33844;SDS011;20145;43.118;25.694;2022-08-24T11:19:08;21.38;;;6.10;;
33844;SDS011;20145;43.118;25.694;2022-08-24T11:24:03;22.85;;;5.63;;
33844;SDS011;20145;43.118;25.694;2022-08-24T11:26:44;19.88;;;5.55;;
33844;SDS011;20145;43.118;25.694;2022-08-24T11:29:20;21.67;;;5.97;;
33844;SDS011;20145;43.118;25.694;2022-08-24T11:34:18;20.42;;;5.95;;
33844;SDS011;20145;43.118;25.694;2022-08-24T11:36:55;15.05;;;6.50;;
33844;SDS011;20145;43.118;25.694;2022-08-24T11:39:23;20.75;;;6.15;;
33844;SDS011;20145;43.118;25.694;2022-08-24T11:45:03;22.52;;;5.97;;
33844;SDS011;20145;43.118;25.694;2022-08-24T11:47:38;21.83;;;6.10;;
33844;SDS011;20145;43.118;25.694;2022-08-24T11:58:40;23.50;;;6.93;;
33844;SDS011;20145;43.118;25.694;2022-08-24T12:01:16;20.05;;;5.90;;
33844;SDS011;20145;43.118;25.694;2022-08-24T12:09:43;16.75;;;5.65;;
33844;SDS011;20145;43.118;25.694;2022-08-24T12:20:31;16.38;;;5.72;;
33844;SDS011;20145;43.118;25.694;2022-08-24T12:23:05;15.52;;;5.45;;
33844;SDS011;20145;43.118;25.694;2022-08-24T12:25:35;23.35;;;7.38;;
33844;SDS011;20145;43.118;25.694;2022-08-24T12:28:23;18.88;;;5.75;;
33844;SDS011;20145;43.118;25.694;2022-08-24T12:30:52;19.80;;;6.95;;
33844;SDS011;20145;43.118;25.694;2022-08-24T12:33:24;24.23;;;5.60;;
33844;SDS011;20145;43.118;25.694;2022-08-24T12:35:57;19.83;;;5.70;;
33844;SDS011;20145;43.118;25.694;2022-08-24T12:41:19;21.33;;;6.40;;
33844;SDS011;20145;43.118;25.694;2022-08-24T12:44:01;16.98;;;6.05;;
33844;SDS011;20145;43.118;25.694;2022-08-24T12:46:29;25.65;;;6.60;;
33844;SDS011;20145;43.118;25.694;2022-08-24T12:48:56;23.73;;;6.75;;
33844;SDS011;20145;43.118;25.694;2022-08-24T12:54:45;22.60;;;6.25;;
33844;SDS011;20145;43.118;25.694;2022-08-24T12:57:28;18.47;;;6.47;;
33844;SDS011;20145;43.118;25.694;2022-08-24T13:00:25;21.92;;;5.32;;
33844;SDS011;20145;43.118;25.694;2022-08-24T13:02:58;19.17;;;6.25;;
33844;SDS011;20145;43.118;25.694;2022-08-24T13:05:55;21.08;;;6.18;;
33844;SDS011;20145;43.118;25.694;2022-08-24T13:08:36;22.88;;;5.53;;
33844;SDS011;20145;43.118;25.694;2022-08-24T13:11:05;19.83;;;5.70;;
33844;SDS011;20145;43.118;25.694;2022-08-24T13:13:42;24.50;;;5.68;;
33844;SDS011;20145;43.118;25.694;2022-08-24T13:16:51;28.25;;;6.03;;
33844;SDS011;20145;43.118;25.694;2022-08-24T13:22:44;25.65;;;5.53;;
33844;SDS011;20145;43.118;25.694;2022-08-24T13:32:31;27.85;;;6.25;;
33844;SDS011;20145;43.118;25.694;2022-08-24T13:52:27;25.45;;;5.55;;
33844;SDS011;20145;43.118;25.694;2022-08-24T14:01:18;18.65;;;5.90;;
33844;SDS011;20145;43.118;25.694;2022-08-24T14:06:30;16.33;;;5.00;;
33844;SDS011;20145;43.118;25.694;2022-08-24T14:14:09;18.67;;;5.38;;
33844;SDS011;20145;43.118;25.694;2022-08-24T14:25:11;17.17;;;5.05;;
33844;SDS011;20145;43.118;25.694;2022-08-24T14:30:46;27.10;;;6.25;;
33844;SDS011;20145;43.118;25.694;2022-08-24T14:33:31;25.38;;;5.88;;
33844;SDS011;20145;43.118;25.694;2022-08-24T14:36:19;18.60;;;4.97;;
33844;SDS011;20145;43.118;25.694;2022-08-24T14:41:26;25.00;;;4.55;;
33844;SDS011;20145;43.118;25.694;2022-08-24T14:46:38;11.40;;;5.07;;
33844;SDS011;20145;43.118;25.694;2022-08-24T15:02:42;19.30;;;5.25;;
33844;SDS011;20145;43.118;25.694;2022-08-24T15:08:26;22.13;;;5.78;;
33844;SDS011;20145;43.118;25.694;2022-08-24T15:11:01;16.85;;;5.13;;
33844;SDS011;20145;43.118;25.694;2022-08-24T15:19:08;22.88;;;4.68;;
33844;SDS011;20145;43.118;25.694;2022-08-24T15:24:14;17.85;;;4.60;;
33844;SDS011;20145;43.118;25.694;2022-08-24T15:29:51;16.17;;;5.40;;
33844;SDS011;20145;43.118;25.694;2022-08-24T15:32:20;19.02;;;5.15;;
33844;SDS011;20145;43.118;25.694;2022-08-24T15:34:53;20.90;;;5.15;;
33844;SDS011;20145;43.118;25.694;2022-08-24T15:39:53;17.92;;;5.30;;
33844;SDS011;20145;43.118;25.694;2022-08-24T15:42:18;21.77;;;4.60;;
33844;SDS011;20145;43.118;25.694;2022-08-24T15:44:45;22.15;;;4.78;;
33844;SDS011;20145;43.118;25.694;2022-08-24T15:47:23;15.10;;;4.70;;
33844;SDS011;20145;43.118;25.694;2022-08-24T15:54:57;23.98;;;5.65;;
33844;SDS011;20145;43.118;25.694;2022-08-24T15:57:27;20.40;;;4.47;;
33844;SDS011;20145;43.118;25.694;2022-08-24T16:00:15;17.20;;;5.05;;
33844;SDS011;20145;43.118;25.694;2022-08-24T16:05:49;23.10;;;5.78;;
33844;SDS011;20145;43.118;25.694;2022-08-24T16:08:17;18.42;;;5.30;;
33844;SDS011;20145;43.118;25.694;2022-08-24T16:16:04;16.42;;;4.55;;
33844;SDS011;20145;43.118;25.694;2022-08-24T16:18:49;18.85;;;5.43;;
33844;SDS011;20145;43.118;25.694;2022-08-24T16:21:23;18.95;;;5.43;;
33844;SDS011;20145;43.118;25.694;2022-08-24T16:23:57;19.98;;;4.90;;
33844;SDS011;20145;43.118;25.694;2022-08-24T16:29:56;25.65;;;5.20;;
33844;SDS011;20145;43.118;25.694;2022-08-24T16:32:09;15.60;;;4.82;;
33844;SDS011;20145;43.118;25.694;2022-08-24T16:34:36;18.40;;;5.28;;
33844;SDS011;20145;43.118;25.694;2022-08-24T16:37:03;18.38;;;5.32;;
33844;SDS011;20145;43.118;25.694;2022-08-24T16:39:29;23.58;;;5.88;;
33844;SDS011;20145;43.118;25.694;2022-08-24T16:42:06;22.88;;;5.28;;
33844;SDS011;20145;43.118;25.694;2022-08-24T16:44:38;17.17;;;5.45;;
33844;SDS011;20145;43.118;25.694;2022-08-24T16:47:06;15.52;;;5.00;;
33844;SDS011;20145;43.118;25.694;2022-08-24T16:49:33;21.70;;;5.25;;
33844;SDS011;20145;43.118;25.694;2022-08-24T16:52:00;14.77;;;4.97;;
33844;SDS011;20145;43.118;25.694;2022-08-24T16:54:27;24.27;;;5.78;;
33844;SDS011;20145;43.118;25.694;2022-08-24T16:56:56;21.85;;;5.60;;
33844;SDS011;20145;43.118;25.694;2022-08-24T16:59:30;16.13;;;5.55;;
33844;SDS011;20145;43.118;25.694;2022-08-24T17:01:57;17.77;;;5.93;;
33844;SDS011;20145;43.118;25.694;2022-08-24T17:04:24;14.23;;;5.38;;
33844;SDS011;20145;43.118;25.694;2022-08-24T17:06:50;20.63;;;5.35;;
33844;SDS011;20145;43.118;25.694;2022-08-24T17:09:16;20.50;;;5.45;;
33844;SDS011;20145;43.118;25.694;2022-08-24T17:11:43;16.27;;;5.53;;
33844;SDS011;20145;43.118;25.694;2022-08-24T17:14:10;20.42;;;5.65;;
33844;SDS011;20145;43.118;25.694;2022-08-24T17:16:35;20.27;;;5.30;;
33844;SDS011;20145;43.118;25.694;2022-08-24T17:19:04;18.88;;;5.80;;
33844;SDS011;20145;43.118;25.694;2022-08-24T17:21:34;17.27;;;4.68;;
33844;SDS011;20145;43.118;25.694;2022-08-24T17:23:59;25.00;;;5.90;;
33844;SDS011;20145;43.118;25.694;2022-08-24T17:26:25;16.90;;;7.13;;
33844;SDS011;20145;43.118;25.694;2022-08-24T17:28:51;21.40;;;6.25;;
33844;SDS011;20145;43.118;25.694;2022-08-24T17:31:20;18.40;;;6.18;;
33844;SDS011;20145;43.118;25.694;2022-08-24T17:33:49;19.55;;;6.78;;
33844;SDS011;20145;43.118;25.694;2022-08-24T17:36:15;19.55;;;6.88;;
33844;SDS011;20145;43.118;25.694;2022-08-24T17:38:45;21.88;;;5.88;;
33844;SDS011;20145;43.118;25.694;2022-08-24T17:41:14;23.27;;;5.70;;
33844;SDS011;20145;43.118;25.694;2022-08-24T17:43:40;1991.70;;;999.90;;
33844;SDS011;20145;43.118;25.694;2022-08-24T17:46:07;1036.63;;;917.35;;
33844;SDS011;20145;43.118;25.694;2022-08-24T17:48:35;686.00;;;627.72;;
33844;SDS011;20145;43.118;25.694;2022-08-24T17:51:01;175.68;;;160.70;;
33844;SDS011;20145;43.118;25.694;2022-08-24T17:53:27;48.97;;;35.20;;
33844;SDS011;20145;43.118;25.694;2022-08-24T17:55:53;24.30;;;11.55;;
33844;SDS011;20145;43.118;25.694;2022-08-24T17:58:19;18.98;;;7.35;;
33844;SDS011;20145;43.118;25.694;2022-08-24T18:00:44;19.40;;;5.68;;
33844;SDS011;20145;43.118;25.694;2022-08-24T18:03:10;17.65;;;5.65;;
33844;SDS011;20145;43.118;25.694;2022-08-24T18:05:36;14.48;;;5.03;;
33844;SDS011;20145;43.118;25.694;2022-08-24T18:08:02;17.73;;;6.82;;
33844;SDS011;20145;43.118;25.694;2022-08-24T18:10:29;22.70;;;7.05;;
33844;SDS011;20145;43.118;25.694;2022-08-24T18:12:59;20.27;;;5.67;;
33844;SDS011;20145;43.118;25.694;2022-08-24T18:15:26;25.35;;;6.57;;
33844;SDS011;20145;43.118;25.694;2022-08-24T18:17:55;21.88;;;5.65;;
33844;SDS011;20145;43.118;25.694;2022-08-24T18:20:23;24.38;;;5.75;;
33844;SDS011;20145;43.118;25.694;2022-08-24T18:22:51;16.50;;;5.93;;
33844;SDS011;20145;43.118;25.694;2022-08-24T18:25:18;23.30;;;6.43;;